createdAt,value
2023-04-25T00:01:05.985Z,6.51
2023-04-25T00:03:33.630Z,6.53
2023-04-25T00:06:02.997Z,6.47
2023-04-25T00:08:31.528Z,6.59
2023-04-25T00:10:58.718Z,6.56
2023-04-25T00:13:26.590Z,6.60
2023-04-25T00:15:54.256Z,6.56
2023-04-25T00:18:21.156Z,6.48
2023-04-25T00:20:48.176Z,6.50
2023-04-25T00:23:18.770Z,6.43
2023-04-25T00:25:46.967Z,6.42
2023-04-25T00:28:14.770Z,6.44
2023-04-25T00:30:44.730Z,6.40
2023-04-25T00:33:11.855Z,6.37
2023-04-25T00:35:39.505Z,6.37
2023-04-25T00:38:06.372Z,6.27
2023-04-25T00:40:33.229Z,6.16
2023-04-25T00:43:00.136Z,6.15
2023-04-25T00:45:30.690Z,6.03
2023-04-25T00:47:58.215Z,6.03
2023-04-25T00:50:25.715Z,5.97
2023-04-25T00:52:52.989Z,6.09
2023-04-25T00:55:20.890Z,5.97
2023-04-25T00:57:47.981Z,5.88
2023-04-25T01:00:15.855Z,5.91
2023-04-25T01:02:45.906Z,5.84
2023-04-25T01:05:13.250Z,5.74
2023-04-25T01:07:40.172Z,5.71
2023-04-25T01:10:07.513Z,5.71
2023-04-25T01:12:34.751Z,5.71
2023-04-25T01:15:01.895Z,5.61
2023-04-25T01:17:30.181Z,5.59
2023-04-25T01:19:57.115Z,5.57
2023-04-25T01:22:24.044Z,5.61
2023-04-25T01:24:51.945Z,5.64
2023-04-25T01:27:19.324Z,5.80
2023-04-25T01:29:46.984Z,5.76
2023-04-25T01:32:15.062Z,5.88
2023-04-25T01:34:41.815Z,5.98
2023-04-25T01:37:08.535Z,6.08
2023-04-25T01:39:35.242Z,5.96
2023-04-25T01:42:02.661Z,5.82
2023-04-25T01:44:30.834Z,5.93
2023-04-25T01:46:57.668Z,5.87
2023-04-25T01:49:24.797Z,5.81
2023-04-25T01:51:51.599Z,5.93
2023-04-25T01:54:19.758Z,5.92
2023-04-25T01:56:51.470Z,5.90
2023-04-25T01:59:20.991Z,5.94
2023-04-25T02:02:19.900Z,5.86
2023-04-25T02:04:46.941Z,5.88
2023-04-25T02:07:14.222Z,5.94
2023-04-25T02:09:52.723Z,5.95
2023-04-25T02:12:20.756Z,5.94
2023-04-25T02:15:13.588Z,6.00
2023-04-25T02:17:53.803Z,5.98
2023-04-25T02:20:22.835Z,6.01
2023-04-25T02:22:49.834Z,6.00
2023-04-25T02:25:17.226Z,5.99
2023-04-25T02:27:44.589Z,5.98
2023-04-25T02:30:11.701Z,5.91
2023-04-25T02:32:40.180Z,5.98
2023-04-25T02:35:14.198Z,5.95
2023-04-25T02:37:42.671Z,6.06
2023-04-25T02:43:41.280Z,6.25
2023-04-25T02:46:12.266Z,6.28
2023-04-25T02:48:41.419Z,6.32
2023-04-25T02:51:10.842Z,6.36
2023-04-25T02:53:39.250Z,6.33
2023-04-25T02:56:09.915Z,6.31
2023-04-25T02:58:46.922Z,6.28
2023-04-25T03:01:17.819Z,6.34
2023-04-25T03:03:46.032Z,6.33
2023-04-25T03:06:27.482Z,6.33
2023-04-25T03:08:59.527Z,6.33
2023-04-25T03:11:28.881Z,6.36
2023-04-25T03:14:02.771Z,6.34
2023-04-25T03:16:37.031Z,6.33
2023-04-25T03:19:24.762Z,6.26
2023-04-25T03:22:01.534Z,6.17
2023-04-25T03:24:29.946Z,6.12
2023-04-25T03:26:58.450Z,6.08
2023-04-25T03:29:28.099Z,6.04
2023-04-25T03:31:57.920Z,6.02
2023-04-25T03:34:25.857Z,5.97
2023-04-25T03:39:40.048Z,5.98
2023-04-25T03:42:17.925Z,6.04
2023-04-25T03:44:48.761Z,6.06
2023-04-25T03:47:20.915Z,6.05
2023-04-25T03:50:15.215Z,6.01
2023-04-25T04:02:03.150Z,6.02
2023-04-25T04:05:02.716Z,6.02
2023-04-25T04:07:40.543Z,6.01
2023-04-25T04:16:40.029Z,5.91
2023-04-25T04:19:07.649Z,5.87
2023-04-25T04:21:39.406Z,5.88
2023-04-25T04:24:08.014Z,5.96
2023-04-25T04:27:40.787Z,5.94
2023-04-25T04:30:48.961Z,5.98
2023-04-25T04:33:44.963Z,5.98
2023-04-25T04:36:30.582Z,6.00
2023-04-25T04:39:05.231Z,5.96
2023-04-25T04:41:55.088Z,5.92
2023-04-25T04:45:16.910Z,5.93
2023-04-25T04:48:11.829Z,5.96
2023-04-25T04:51:10.728Z,5.89
2023-04-25T04:57:55.741Z,5.91
2023-04-25T05:00:48.243Z,5.96
2023-04-25T05:04:14.575Z,6.12
2023-04-25T05:07:37.432Z,6.33
2023-04-25T05:10:37.127Z,6.21
2023-04-25T05:13:15.038Z,6.22
2023-04-25T05:15:54.199Z,6.25
2023-04-25T05:21:58.407Z,6.16
2023-04-25T05:25:06.720Z,6.24
2023-04-25T05:28:24.821Z,6.31
2023-04-25T05:31:53.308Z,6.37
2023-04-25T05:34:38.343Z,6.30
2023-04-25T05:37:28.166Z,6.21
2023-04-25T05:40:35.496Z,6.24
2023-04-25T05:43:32.768Z,6.26
2023-04-25T05:46:11.514Z,6.26
2023-04-25T05:53:19.623Z,6.62
2023-04-25T05:55:59.048Z,6.62
2023-04-25T05:58:29.024Z,6.64
2023-04-25T06:01:15.477Z,6.65
2023-04-25T06:12:42.283Z,6.73
2023-04-25T06:15:27.019Z,6.78
2023-04-25T06:17:56.789Z,6.75
2023-04-25T06:20:25.687Z,6.69
2023-04-25T06:23:15.280Z,6.73
2023-04-25T06:29:29.908Z,6.74
2023-04-25T06:39:52.072Z,6.86
2023-04-25T06:43:12.900Z,7.08
2023-04-25T06:46:30.087Z,7.20
2023-04-25T06:52:43.308Z,7.29
2023-04-25T06:55:35.767Z,7.47
2023-04-25T07:01:47.072Z,7.84
2023-04-25T07:04:25.768Z,7.74
2023-04-25T07:07:04.492Z,7.55
2023-04-25T07:09:56.700Z,7.46
2023-04-25T07:12:31.625Z,7.40
2023-04-25T07:15:09.649Z,7.31
2023-04-25T07:17:37.717Z,7.19
2023-04-25T07:20:29.122Z,7.18
2023-04-25T07:23:09.417Z,7.21
2023-04-25T07:25:53.548Z,7.36
2023-04-25T07:29:01.443Z,7.50
2023-04-25T07:34:49.240Z,7.80
2023-04-25T07:37:17.120Z,7.81
2023-04-25T07:39:58.934Z,7.84
2023-04-25T07:42:29.529Z,7.89
2023-04-25T07:44:57.872Z,8.03
2023-04-25T07:47:25.419Z,8.07
2023-04-25T07:49:53.826Z,7.96
2023-04-25T07:52:22.808Z,7.90
2023-04-25T07:55:08.557Z,7.83
2023-04-25T07:58:26.356Z,7.76
2023-04-25T08:01:36.987Z,7.81
2023-04-25T08:10:22.051Z,8.10
2023-04-25T08:13:01.404Z,8.12
2023-04-25T08:16:11.430Z,8.16
2023-04-25T08:18:41.563Z,8.23
2023-04-25T08:21:49.455Z,8.33
2023-04-25T08:25:06.495Z,8.40
2023-04-25T08:27:36.126Z,8.43
2023-04-25T08:30:05.178Z,8.50
2023-04-25T08:32:44.719Z,8.57
2023-04-25T08:35:37.860Z,8.68
2023-04-25T08:38:15.443Z,8.67
2023-04-25T08:43:36.673Z,8.57
2023-04-25T08:46:14.217Z,8.60
2023-04-25T08:49:10.413Z,8.66
2023-04-25T08:51:53.603Z,8.74
2023-04-25T08:54:37.218Z,8.67
2023-04-25T08:57:11.913Z,8.74
2023-04-25T08:59:41.894Z,8.68
2023-04-25T09:02:17.982Z,8.61
2023-04-25T09:04:58.777Z,8.55
2023-04-25T09:07:35.791Z,8.46
2023-04-25T09:10:15.852Z,8.32
2023-04-25T09:13:09.944Z,8.17
2023-04-25T09:16:02.859Z,7.76
2023-04-25T09:18:51.483Z,7.47
2023-04-25T09:21:22.992Z,7.23
2023-04-25T09:27:37.621Z,6.75
2023-04-25T09:34:56.059Z,6.75
2023-04-25T09:37:32.354Z,6.72
2023-04-25T09:53:26.832Z,6.83
2023-04-25T10:08:34.957Z,6.52
2023-04-25T10:24:02.912Z,7.11
2023-04-25T10:26:31.469Z,7.20
2023-04-25T10:29:08.185Z,7.31
2023-04-25T10:31:47.737Z,7.44
2023-04-25T10:34:15.976Z,7.63
2023-04-25T10:36:44.458Z,7.70
2023-04-25T10:39:18.597Z,7.75
2023-04-25T10:42:13.366Z,7.58
2023-04-25T10:45:08.817Z,7.58
2023-04-25T10:47:58.896Z,7.45
2023-04-25T10:50:41.165Z,7.34
2023-04-25T10:53:24.198Z,7.18
2023-04-25T10:56:32.764Z,7.04
2023-04-25T10:59:10.446Z,6.89
2023-04-25T11:01:47.460Z,6.73
2023-04-25T11:33:37.516Z,6.87
2023-04-25T11:36:08.651Z,6.98
2023-04-25T11:38:45.002Z,7.18
2023-04-25T11:41:27.565Z,7.12
2023-04-25T11:43:56.479Z,7.14
2023-04-25T11:46:40.514Z,7.08
2023-04-25T11:57:36.947Z,7.09
2023-04-25T12:00:18.603Z,6.87
2023-04-25T12:02:58.410Z,6.72
2023-04-25T12:05:33.371Z,6.50
2023-04-25T12:08:16.333Z,6.28
2023-04-25T12:10:51.577Z,6.18
2023-04-25T12:13:25.183Z,5.97
2023-04-25T12:15:59.142Z,5.99
2023-04-25T12:18:33.500Z,5.96
2023-04-25T12:21:01.087Z,5.94
2023-04-25T12:23:29.312Z,6.02
2023-04-25T12:25:56.920Z,6.12
2023-04-25T12:32:09.388Z,6.50
2023-04-25T12:34:42.681Z,6.51
2023-04-25T12:37:21.097Z,6.59
2023-04-25T12:42:36.958Z,6.60
2023-04-25T12:45:38.606Z,6.40
2023-04-25T12:48:10.365Z,6.36
2023-04-25T12:51:04.308Z,6.16
2023-04-25T12:57:40.558Z,6.11
2023-04-25T13:00:23.981Z,6.19
2023-04-25T13:02:59.799Z,5.91
2023-04-25T13:05:33.814Z,6.01
2023-04-25T13:08:22.893Z,6.11
2023-04-25T13:16:01.265Z,6.45
2023-04-25T13:23:23.141Z,6.84
2023-04-25T13:25:50.150Z,6.82
2023-04-25T13:28:17.114Z,6.82
2023-04-25T13:30:44.357Z,7.04
2023-04-25T13:33:11.500Z,7.25
2023-04-25T13:42:47.152Z,8.58
2023-04-25T13:48:30.910Z,8.91
2023-04-25T13:50:59.146Z,9.14
2023-04-25T13:57:15.127Z,9.58
2023-04-25T13:59:42.036Z,9.87
2023-04-25T14:02:08.851Z,9.75
2023-04-25T14:04:45.118Z,9.75
2023-04-25T14:07:13.119Z,9.61
2023-04-25T14:09:44.460Z,9.69
2023-04-25T14:12:12.618Z,10.13
2023-04-25T14:14:40.857Z,10.47
2023-04-25T14:17:10.535Z,10.36
2023-04-25T14:19:44.639Z,10.16
2023-04-25T14:22:12.633Z,10.02
2023-04-25T14:24:43.685Z,10.30
2023-04-25T14:27:11.727Z,10.11
2023-04-25T14:34:42.442Z,9.82
2023-04-25T14:37:51.918Z,9.43
2023-04-25T14:40:24.413Z,9.04
2023-04-25T14:43:22.803Z,8.92
2023-04-25T14:45:50.016Z,8.76
2023-04-25T14:48:19.129Z,8.72
2023-04-25T14:50:48.958Z,8.73
2023-04-25T14:53:16.172Z,8.74
2023-04-25T14:55:43.073Z,8.84
2023-04-25T14:58:10.364Z,8.99
2023-04-25T15:00:38.863Z,9.18
2023-04-25T15:06:01.394Z,9.58
2023-04-25T15:15:25.967Z,9.50
2023-04-25T15:18:48.726Z,9.49
2023-04-25T15:21:15.794Z,9.61
2023-04-25T15:23:42.450Z,9.47
2023-04-25T15:26:09.446Z,9.18
2023-04-25T15:28:36.123Z,8.82
2023-04-25T15:34:47.218Z,8.38
2023-04-25T15:37:21.638Z,8.33
2023-04-25T15:40:17.749Z,8.50
2023-04-25T15:42:54.322Z,8.59
2023-04-25T15:45:27.275Z,8.57
2023-04-25T15:47:57.210Z,8.66
2023-04-25T15:51:32.223Z,8.82
2023-04-25T15:54:03.034Z,9.02
2023-04-25T15:56:30.908Z,9.09
2023-04-25T15:58:58.337Z,8.97
2023-04-25T16:01:26.738Z,8.74
2023-04-25T16:03:54.498Z,8.63
2023-04-25T16:06:25.466Z,8.51
2023-04-25T16:08:52.581Z,8.44
2023-04-25T16:11:20.297Z,8.38
2023-04-25T16:13:55.546Z,8.29
2023-04-25T16:18:00.296Z,8.26
2023-04-25T16:20:18.392Z,8.10
2023-04-25T16:23:29.070Z,8.16
2023-04-25T16:25:59.186Z,8.16
2023-04-25T16:28:29.697Z,8.27
2023-04-25T16:38:09.376Z,7.65
2023-04-25T16:40:39.707Z,7.32
2023-04-25T16:43:06.905Z,7.19
2023-04-25T16:45:37.002Z,7.00
2023-04-25T16:48:05.714Z,6.96
2023-04-25T16:54:03.002Z,6.98
2023-04-25T17:08:13.081Z,6.54
2023-04-25T17:10:41.013Z,6.48
2023-04-25T17:13:10.324Z,6.52
2023-04-25T17:15:38.525Z,6.56
2023-04-25T17:18:06.877Z,6.51
2023-04-25T17:20:34.285Z,6.36
2023-04-25T17:23:01.826Z,6.35
2023-04-25T17:25:29.347Z,6.32
2023-04-25T17:35:46.489Z,6.36
2023-04-25T17:38:15.331Z,6.40
2023-04-25T17:40:43.532Z,6.34
2023-04-25T17:43:16.838Z,6.41
2023-04-25T17:45:44.117Z,6.44
2023-04-25T17:48:33.685Z,6.32
2023-04-25T17:51:00.889Z,6.26
2023-04-25T17:53:30.252Z,6.33
2023-04-25T17:56:01.270Z,6.38
2023-04-25T17:58:37.492Z,6.36
2023-04-25T18:01:05.753Z,6.37
2023-04-25T18:04:48.192Z,6.37
2023-04-25T18:08:27.362Z,6.30
2023-04-25T18:14:22.341Z,6.18
2023-04-25T18:16:51.875Z,6.23
2023-04-25T18:19:21.623Z,6.25
2023-04-25T18:22:05.204Z,6.17
2023-04-25T18:24:32.442Z,6.04
2023-04-25T18:27:06.205Z,5.90
2023-04-25T18:57:18.025Z,5.88
2023-04-25T18:59:46.423Z,5.75
2023-04-25T19:02:18.251Z,5.89
2023-04-25T19:04:49.481Z,5.96
2023-04-25T19:22:04.512Z,5.92
2023-04-25T19:24:33.916Z,5.90
2023-04-25T19:27:01.938Z,5.99
2023-04-25T19:30:22.007Z,5.97
2023-04-25T19:32:27.466Z,6.04
2023-04-25T19:35:01.282Z,5.92
2023-04-25T19:37:49.350Z,5.97
2023-04-25T19:40:22.910Z,6.06
2023-04-25T19:42:56.024Z,6.13
2023-04-25T19:45:26.760Z,6.14
2023-04-25T19:48:03.640Z,6.13
2023-04-25T19:50:31.755Z,6.01
2023-04-25T19:53:01.735Z,6.04
2023-04-25T19:55:29.131Z,6.00
2023-04-25T19:57:56.768Z,5.56
2023-04-25T20:00:39.163Z,5.62
2023-04-25T20:03:06.257Z,5.48
2023-04-25T20:05:38.431Z,5.51
2023-04-25T20:08:21.327Z,5.62
2023-04-25T20:10:49.613Z,5.71
2023-04-25T20:13:17.860Z,5.76
2023-04-25T20:15:45.270Z,5.74
2023-04-25T20:18:15.490Z,5.82
2023-04-25T20:20:43.167Z,5.76
2023-04-25T20:23:13.449Z,5.79
2023-04-25T20:25:49.521Z,5.80
2023-04-25T20:28:16.834Z,5.61
2023-04-25T20:30:47.423Z,5.72
2023-04-25T20:33:22.144Z,5.71
2023-04-25T20:35:50.284Z,5.56
2023-04-25T20:39:05.435Z,5.54
2023-04-25T20:41:48.740Z,5.57
2023-04-25T20:44:25.548Z,5.56
2023-04-25T20:46:52.940Z,5.49
2023-04-25T20:49:22.716Z,5.51
2023-04-25T20:51:55.858Z,5.45
2023-04-25T20:54:27.322Z,5.40
2023-04-25T20:56:54.539Z,5.31
2023-04-25T20:59:24.042Z,5.28
2023-04-25T21:01:55.048Z,5.47
2023-04-25T21:04:23.079Z,5.46
2023-04-25T21:06:52.258Z,5.45
2023-04-25T21:09:25.586Z,5.52
2023-04-25T21:11:53.021Z,5.45
2023-04-25T21:14:51.763Z,5.38
2023-04-25T21:17:28.764Z,5.55
2023-04-25T21:19:56.825Z,5.46
2023-04-25T21:22:27.157Z,5.51
2023-04-25T21:24:57.423Z,5.50
2023-04-25T21:27:33.209Z,5.46
2023-04-25T21:30:06.457Z,5.53
2023-04-25T21:32:36.988Z,5.55
2023-04-25T21:35:04.501Z,5.65
2023-04-25T21:37:32.011Z,5.64
2023-04-25T21:39:59.422Z,5.67
2023-04-25T21:42:29.530Z,5.63
2023-04-25T21:44:56.853Z,5.64
2023-04-25T21:47:25.072Z,5.58
2023-04-25T21:49:52.406Z,5.62
2023-04-25T21:52:21.973Z,5.65
2023-04-25T21:54:56.677Z,5.67
2023-04-25T21:57:27.229Z,5.64
2023-04-25T21:59:54.630Z,5.76
2023-04-25T22:03:07.808Z,5.75
2023-04-25T22:05:35.174Z,5.75
2023-04-25T22:08:03.794Z,5.71
2023-04-25T22:10:31.665Z,5.64
2023-04-25T22:12:59.500Z,5.48
2023-04-25T22:15:29.997Z,5.50
2023-04-25T22:17:57.926Z,5.48
2023-04-25T22:20:37.218Z,5.41
2023-04-25T22:23:04.454Z,5.20
2023-04-25T22:25:32.713Z,5.24
2023-04-25T22:27:59.829Z,5.13
2023-04-25T22:30:31.010Z,5.29
2023-04-25T22:32:58.601Z,5.36
2023-04-25T22:36:24.690Z,5.42
2023-04-25T22:38:53.407Z,5.40
2023-04-25T22:41:24.262Z,5.40
2023-04-25T22:43:51.503Z,5.47
2023-04-25T22:46:20.547Z,5.51
2023-04-25T22:48:50.325Z,5.45
2023-04-25T22:51:18.494Z,5.52
2023-04-25T22:53:49.814Z,5.56
2023-04-25T22:56:19.964Z,5.43
2023-04-25T22:59:50.313Z,5.48
2023-04-25T23:02:17.829Z,5.44
2023-04-25T23:04:45.183Z,5.37
2023-04-25T23:07:13.593Z,5.30
2023-04-25T23:09:49.927Z,5.34
2023-04-25T23:12:20.434Z,5.30
2023-04-25T23:15:14.000Z,5.27
2023-04-25T23:17:42.236Z,5.12
2023-04-25T23:20:24.566Z,5.19
2023-04-25T23:22:52.082Z,5.26
2023-04-25T23:25:23.647Z,5.25
2023-04-25T23:27:51.240Z,5.26
2023-04-25T23:30:19.070Z,5.24
2023-04-25T23:32:46.601Z,5.21
2023-04-25T23:37:57.689Z,5.19
2023-04-25T23:40:25.154Z,5.12
2023-04-25T23:42:52.971Z,5.10
2023-04-25T23:45:21.072Z,5.03
2023-04-25T23:47:54.201Z,5.07
2023-04-25T23:50:21.546Z,5.13
2023-04-25T23:52:51.868Z,5.01
2023-04-25T23:55:19.233Z,5.01
2023-04-25T23:57:46.843Z,5.08
